createdAt,value
2023-01-17T03:03:11.886Z,14.55
2023-01-17T03:05:51.037Z,12.65
2023-01-17T03:08:19.275Z,15.65
2023-01-17T03:10:46.421Z,12.25
2023-01-17T03:13:13.233Z,12.73
2023-01-17T03:15:41.033Z,15.55
2023-01-17T03:18:14.176Z,8.00
2023-01-17T03:20:41.824Z,11.07
2023-01-17T03:23:08.903Z,9.30
2023-01-17T03:25:35.549Z,8.45
2023-01-17T03:28:02.188Z,10.88
2023-01-17T03:30:28.894Z,13.73
2023-01-17T03:32:55.487Z,7.68
2023-01-17T03:35:22.118Z,8.95
2023-01-17T03:37:48.807Z,12.20
2023-01-17T03:40:15.434Z,10.55
2023-01-17T03:42:42.821Z,10.15
2023-01-17T03:45:09.899Z,7.28
2023-01-17T03:47:36.530Z,10.98
2023-01-17T03:50:03.869Z,8.85
2023-01-17T03:52:30.638Z,12.70
2023-01-17T03:54:57.335Z,9.98
2023-01-17T03:57:23.982Z,6.70
2023-01-17T03:59:50.635Z,9.63
2023-01-17T04:02:17.752Z,7.28
2023-01-17T04:04:44.442Z,9.60
2023-01-17T04:07:11.129Z,12.75
2023-01-17T04:09:37.871Z,9.57
2023-01-17T04:12:04.573Z,8.25
2023-01-17T04:14:31.231Z,12.93
2023-01-17T04:16:58.031Z,14.32
2023-01-17T04:19:24.683Z,16.38
2023-01-17T04:21:51.318Z,15.60
2023-01-17T04:24:18.249Z,19.75
2023-01-17T04:26:45.037Z,16.70
2023-01-17T04:29:11.669Z,19.75
2023-01-17T04:31:38.658Z,17.05
2023-01-17T04:34:05.375Z,23.15
2023-01-17T04:36:32.364Z,19.52
2023-01-17T04:38:59.046Z,14.75
2023-01-17T04:41:25.701Z,14.77
2023-01-17T04:43:52.317Z,21.95
2023-01-17T04:46:19.089Z,17.50
2023-01-17T04:48:45.760Z,20.98
2023-01-17T04:51:12.508Z,25.45
2023-01-17T04:53:39.160Z,22.00
2023-01-17T04:56:06.006Z,19.13
2023-01-17T04:58:33.468Z,12.82
2023-01-17T05:01:05.129Z,12.88
2023-01-17T05:03:32.472Z,14.32
2023-01-17T05:05:59.902Z,9.63
2023-01-17T05:08:26.698Z,7.82
2023-01-17T05:10:54.614Z,11.75
2023-01-17T05:13:21.228Z,7.28
2023-01-17T05:15:48.124Z,7.90
2023-01-17T05:18:16.670Z,9.65
2023-01-17T05:20:44.060Z,9.10
2023-01-17T05:23:11.357Z,9.57
2023-01-17T05:25:38.221Z,9.07
2023-01-17T05:28:05.052Z,14.55
2023-01-17T05:30:32.715Z,7.47
2023-01-17T05:32:59.679Z,15.30
2023-01-17T05:35:29.013Z,9.30
2023-01-17T05:37:57.719Z,7.90
2023-01-17T05:40:29.572Z,6.22
2023-01-17T05:42:57.839Z,9.50
2023-01-17T05:45:27.068Z,13.85
2023-01-17T05:47:55.338Z,10.23
2023-01-17T05:50:35.084Z,6.50
2023-01-17T05:53:11.393Z,10.05
2023-01-17T05:55:38.683Z,6.55
2023-01-17T05:58:07.481Z,6.13
2023-01-17T06:00:34.527Z,10.73
2023-01-17T06:03:01.553Z,8.27
2023-01-17T06:05:29.295Z,5.93
2023-01-17T06:07:56.686Z,10.55
2023-01-17T06:10:24.139Z,6.95
2023-01-17T06:13:00.009Z,8.98
2023-01-17T06:15:26.618Z,8.40
2023-01-17T06:17:53.304Z,6.75
2023-01-17T06:20:20.023Z,6.65
2023-01-17T06:22:46.733Z,10.38
2023-01-17T06:25:13.641Z,6.03
2023-01-17T06:27:41.699Z,8.05
2023-01-17T06:30:09.024Z,5.28
2023-01-17T06:32:35.693Z,11.57
2023-01-17T06:35:02.364Z,7.40
2023-01-17T06:37:28.989Z,10.13
2023-01-17T06:39:55.682Z,4.72
2023-01-17T06:42:22.454Z,8.02
2023-01-17T06:44:49.083Z,9.63
2023-01-17T06:47:15.699Z,9.70
2023-01-17T06:49:43.435Z,6.30
2023-01-17T06:52:10.118Z,7.45
2023-01-17T06:54:36.729Z,8.80
2023-01-17T06:57:03.431Z,5.88
2023-01-17T06:59:30.017Z,11.98
2023-01-17T07:01:56.767Z,9.80
2023-01-17T07:04:23.440Z,5.63
2023-01-17T07:06:50.363Z,9.88
2023-01-17T07:09:18.507Z,12.80
2023-01-17T07:11:47.677Z,11.05
2023-01-17T07:14:14.703Z,10.32
2023-01-17T07:16:45.352Z,8.18
2023-01-17T07:19:12.403Z,11.75
2023-01-17T07:21:41.211Z,11.15
2023-01-17T07:24:09.277Z,9.90
2023-01-17T07:26:37.852Z,9.40
2023-01-17T07:29:05.516Z,14.88
2023-01-17T07:31:38.203Z,12.38
2023-01-17T07:34:05.409Z,10.38
2023-01-17T07:36:33.317Z,8.77
2023-01-17T07:39:00.099Z,12.10
2023-01-17T07:41:34.650Z,8.15
2023-01-17T07:44:04.772Z,14.13
2023-01-17T07:46:31.803Z,10.18
2023-01-17T07:49:00.738Z,15.43
2023-01-17T07:51:27.560Z,12.43
2023-01-17T07:53:54.542Z,9.30
2023-01-17T07:56:21.680Z,8.25
2023-01-17T07:58:48.688Z,10.10
2023-01-17T08:01:16.979Z,10.13
2023-01-17T08:03:45.530Z,9.77
2023-01-17T08:06:26.146Z,10.77
2023-01-17T08:08:56.564Z,8.90
2023-01-17T08:11:23.803Z,15.27
2023-01-17T08:13:57.544Z,16.02
2023-01-17T08:16:25.468Z,11.10
2023-01-17T08:18:53.770Z,15.55
2023-01-17T08:21:20.556Z,13.27
2023-01-17T08:23:48.837Z,9.15
2023-01-17T08:26:22.428Z,11.38
2023-01-17T08:28:57.102Z,11.38
2023-01-17T08:31:24.708Z,11.13
2023-01-17T08:33:51.471Z,11.30
2023-01-17T08:36:18.430Z,13.35
2023-01-17T08:38:45.288Z,12.93
2023-01-17T08:41:13.073Z,11.90
2023-01-17T08:43:39.779Z,13.43
2023-01-17T08:46:06.662Z,15.23
2023-01-17T08:48:33.451Z,12.35
2023-01-17T08:51:02.197Z,13.00
2023-01-17T08:53:29.197Z,12.18
2023-01-17T08:56:01.092Z,23.92
2023-01-17T08:58:30.707Z,14.57
2023-01-17T09:01:04.477Z,13.80
2023-01-17T09:03:32.685Z,15.43
2023-01-17T09:06:13.372Z,19.90
2023-01-17T09:08:40.606Z,16.58
2023-01-17T09:11:10.171Z,11.75
2023-01-17T09:13:37.909Z,13.23
2023-01-17T09:16:05.746Z,16.02
2023-01-17T09:18:35.240Z,9.95
2023-01-17T09:21:16.129Z,14.48
2023-01-17T09:23:43.495Z,14.20
2023-01-17T09:26:25.505Z,11.88
2023-01-17T09:28:52.351Z,17.25
2023-01-17T09:31:23.348Z,12.38
2023-01-17T09:33:51.478Z,15.70
2023-01-17T09:36:18.475Z,15.13
2023-01-17T09:38:45.233Z,16.55
2023-01-17T09:41:23.008Z,8.85
2023-01-17T09:44:00.002Z,10.48
2023-01-17T09:46:32.228Z,12.75
2023-01-17T09:49:29.689Z,13.65
2023-01-17T09:51:56.376Z,17.67
2023-01-17T09:54:26.054Z,13.77
2023-01-17T09:57:19.198Z,12.60
2023-01-17T10:00:04.206Z,15.60
2023-01-17T10:02:49.322Z,14.10
2023-01-17T10:05:27.860Z,13.88
2023-01-17T10:08:14.837Z,16.90
2023-01-17T10:10:55.168Z,11.10
2023-01-17T10:13:27.872Z,11.15
2023-01-17T10:16:00.941Z,11.13
2023-01-17T10:18:46.134Z,12.20
2023-01-17T10:21:25.174Z,10.85
2023-01-17T10:24:18.132Z,12.35
2023-01-17T10:29:20.173Z,13.50
2023-01-17T10:34:33.155Z,12.93
2023-01-17T10:37:17.770Z,12.30
2023-01-17T10:39:47.773Z,12.65
2023-01-17T10:42:24.800Z,17.95
2023-01-17T10:45:07.606Z,13.68
2023-01-17T10:47:37.828Z,13.43
2023-01-17T10:50:11.642Z,12.13
2023-01-17T10:52:53.387Z,15.70
2023-01-17T10:55:53.482Z,12.93
2023-01-17T10:58:20.340Z,12.13
2023-01-17T11:01:00.270Z,12.90
2023-01-17T11:03:28.778Z,11.65
2023-01-17T11:06:24.959Z,11.38
2023-01-17T11:08:57.497Z,15.70
2023-01-17T11:14:05.537Z,11.77
2023-01-17T11:16:32.765Z,9.27
2023-01-17T11:19:17.479Z,16.20
2023-01-17T11:21:54.398Z,11.02
2023-01-17T11:24:30.203Z,12.23
2023-01-17T11:26:58.162Z,12.63
2023-01-17T11:29:28.424Z,14.07
2023-01-17T11:31:58.542Z,8.65
2023-01-17T11:34:29.459Z,10.82
2023-01-17T11:37:19.470Z,8.80
2023-01-17T11:39:49.815Z,7.22
2023-01-17T11:42:38.165Z,5.97
2023-01-17T11:45:26.177Z,8.75
2023-01-17T11:48:17.168Z,11.65
2023-01-17T11:50:53.672Z,10.15
2023-01-17T11:53:43.837Z,11.98
2023-01-17T11:56:18.520Z,11.55
2023-01-17T11:58:47.301Z,14.75
2023-01-17T12:01:41.553Z,6.88
2023-01-17T12:04:23.610Z,12.73
2023-01-17T12:07:12.167Z,10.25
2023-01-17T12:10:06.472Z,9.95
2023-01-17T12:13:06.990Z,12.05
2023-01-17T12:15:52.167Z,11.45
2023-01-17T12:18:31.680Z,10.23
2023-01-17T12:20:58.255Z,9.63
2023-01-17T12:24:02.398Z,10.63
2023-01-17T12:26:45.767Z,10.50
2023-01-17T12:29:42.853Z,7.28
2023-01-17T12:32:50.936Z,10.98
2023-01-17T12:35:23.013Z,10.32
2023-01-17T12:38:04.737Z,8.07
2023-01-17T12:40:34.670Z,7.47
2023-01-17T12:43:35.308Z,3.53
2023-01-17T12:46:07.729Z,9.68
2023-01-17T12:51:18.387Z,8.90
2023-01-17T12:54:07.211Z,9.85
2023-01-17T12:56:39.630Z,21.15
2023-01-17T12:59:24.519Z,5.90
2023-01-17T13:01:58.613Z,6.28
2023-01-17T13:04:57.407Z,6.10
2023-01-17T13:07:53.753Z,6.47
2023-01-17T13:10:41.572Z,11.07
2023-01-17T13:13:28.626Z,9.88
2023-01-17T13:16:00.712Z,6.78
2023-01-17T13:18:29.996Z,9.48
2023-01-17T13:21:14.858Z,5.53
2023-01-17T13:23:53.966Z,5.40
2023-01-17T13:26:40.322Z,9.52
2023-01-17T13:29:44.865Z,6.90
2023-01-17T13:32:30.702Z,6.43
2023-01-17T13:35:22.681Z,6.20
2023-01-17T13:38:12.449Z,8.47
2023-01-17T13:40:51.017Z,5.30
2023-01-17T13:43:30.418Z,7.70
2023-01-17T13:45:59.836Z,6.55
2023-01-17T13:48:30.046Z,5.90
2023-01-17T13:50:59.271Z,7.68
2023-01-17T13:53:28.752Z,3.75
2023-01-17T13:56:18.454Z,5.28
2023-01-17T13:58:51.916Z,4.65
2023-01-17T14:01:24.503Z,7.75
2023-01-17T14:03:53.859Z,16.65
2023-01-17T14:06:38.549Z,7.57
2023-01-17T14:09:08.150Z,4.40
2023-01-17T14:11:37.485Z,6.38
2023-01-17T14:14:41.701Z,8.32
2023-01-17T14:17:25.623Z,6.10
2023-01-17T14:20:16.138Z,5.60
2023-01-17T14:22:52.352Z,8.52
2023-01-17T14:25:28.079Z,7.63
2023-01-17T14:28:01.093Z,8.57
2023-01-17T14:30:34.033Z,5.47
2023-01-17T14:33:04.833Z,6.50
2023-01-17T14:35:57.126Z,7.22
2023-01-17T14:38:27.009Z,3.97
2023-01-17T14:40:59.185Z,10.93
2023-01-17T14:43:28.740Z,3.40
2023-01-17T14:46:04.240Z,5.22
2023-01-17T14:48:31.148Z,7.25
2023-01-17T14:51:00.221Z,3.72
2023-01-17T14:53:31.480Z,1.60
2023-01-17T14:56:11.306Z,1.98
2023-01-17T14:58:39.385Z,2.25
2023-01-17T15:01:20.529Z,2.95
2023-01-17T15:03:53.089Z,5.10
2023-01-17T15:08:54.205Z,4.65
2023-01-17T15:11:30.267Z,7.18
2023-01-17T15:13:59.377Z,8.23
2023-01-17T15:16:28.979Z,4.95
2023-01-17T15:18:58.386Z,4.22
2023-01-17T15:21:28.546Z,2.47
2023-01-17T15:24:07.196Z,2.78
2023-01-17T15:26:35.435Z,4.95
2023-01-17T15:29:08.494Z,4.35
2023-01-17T15:31:44.910Z,7.13
2023-01-17T15:34:26.831Z,5.40
2023-01-17T15:36:56.967Z,2.17
2023-01-17T15:39:41.212Z,10.63
2023-01-17T15:42:23.280Z,3.75
2023-01-17T15:45:01.602Z,7.97
2023-01-17T15:47:28.226Z,7.05
2023-01-17T15:49:55.291Z,6.03
2023-01-17T15:52:22.087Z,9.35
2023-01-17T15:54:53.342Z,8.15
2023-01-17T15:57:29.450Z,5.63
2023-01-17T16:00:18.730Z,5.05
2023-01-17T16:02:55.241Z,7.78
2023-01-17T16:05:22.424Z,7.63
2023-01-17T16:07:58.547Z,6.38
2023-01-17T16:10:35.653Z,4.53
2023-01-17T16:13:07.147Z,6.88
2023-01-17T16:15:35.350Z,5.57
2023-01-17T16:18:03.965Z,5.97
2023-01-17T16:20:42.798Z,6.25
2023-01-17T16:23:10.465Z,5.68
2023-01-17T16:25:38.462Z,6.28
2023-01-17T16:28:06.175Z,4.13
2023-01-17T16:30:33.795Z,6.80
2023-01-17T16:33:00.572Z,6.38
2023-01-17T16:35:30.433Z,5.80
2023-01-17T16:38:06.190Z,5.53
2023-01-17T16:40:38.711Z,7.00
2023-01-17T16:43:05.399Z,4.68
2023-01-17T16:45:40.468Z,9.23
2023-01-17T16:48:07.649Z,10.30
2023-01-17T16:50:34.609Z,6.13
2023-01-17T16:53:01.296Z,4.80
2023-01-17T16:55:27.936Z,7.82
2023-01-17T16:57:58.812Z,11.52
2023-01-17T17:00:26.951Z,13.93
2023-01-17T17:02:54.785Z,14.23
2023-01-17T17:05:23.157Z,12.20
2023-01-17T17:07:51.925Z,6.60
2023-01-17T17:10:21.274Z,9.57
2023-01-17T17:12:48.261Z,13.63
2023-01-17T17:15:15.166Z,17.98
2023-01-17T17:17:43.336Z,15.10
2023-01-17T17:20:14.935Z,12.02
2023-01-17T17:22:44.106Z,13.35
2023-01-17T17:25:15.960Z,10.25
2023-01-17T17:27:43.041Z,11.52
2023-01-17T17:30:10.775Z,11.90
2023-01-17T17:32:37.417Z,15.57
2023-01-17T17:35:04.616Z,11.18
2023-01-17T17:37:31.346Z,10.23
2023-01-17T17:39:58.138Z,14.40
2023-01-17T17:42:24.993Z,14.35
2023-01-17T17:44:51.741Z,9.38
2023-01-17T17:47:18.339Z,17.08
2023-01-17T17:49:44.984Z,11.93
2023-01-17T17:52:11.701Z,14.30
2023-01-17T17:54:38.410Z,12.18
2023-01-17T17:57:05.156Z,13.55
2023-01-17T17:59:32.026Z,22.17
2023-01-17T18:01:59.814Z,13.90
2023-01-17T18:04:27.125Z,12.13
2023-01-17T18:06:59.669Z,11.30
2023-01-17T18:11:52.893Z,20.60
2023-01-17T18:14:21.237Z,21.05
2023-01-17T18:16:48.411Z,16.85
2023-01-17T18:19:23.416Z,17.65
2023-01-17T18:21:51.474Z,16.65
2023-01-17T18:24:20.758Z,16.08
2023-01-17T18:26:53.645Z,18.98
2023-01-17T18:29:21.543Z,14.00
2023-01-17T18:31:52.596Z,13.05
2023-01-17T18:34:24.058Z,12.73
2023-01-17T18:36:51.888Z,10.20
2023-01-17T18:39:27.121Z,9.20
2023-01-17T18:41:54.432Z,14.18
2023-01-17T18:44:22.358Z,12.73
2023-01-17T18:46:50.405Z,12.00
2023-01-17T18:49:19.365Z,11.45
2023-01-17T18:51:50.375Z,8.30
2023-01-17T18:54:18.039Z,11.68
2023-01-17T18:56:44.766Z,17.33
2023-01-17T18:59:13.099Z,16.90
2023-01-17T19:01:42.344Z,14.85
2023-01-17T19:04:09.577Z,14.52
2023-01-17T19:06:38.684Z,10.18
2023-01-17T19:09:07.535Z,9.18
2023-01-17T19:11:36.764Z,13.27
2023-01-17T19:14:05.728Z,19.88
2023-01-17T19:16:39.235Z,15.80
2023-01-17T19:19:08.612Z,10.65
2023-01-17T19:21:35.854Z,14.63
2023-01-17T19:24:03.172Z,13.77
2023-01-17T19:26:30.095Z,11.82
2023-01-17T19:29:03.736Z,12.55
2023-01-17T19:31:32.351Z,16.27
2023-01-17T19:33:59.849Z,18.75
2023-01-17T19:36:31.508Z,14.90
2023-01-17T19:39:05.012Z,13.50
2023-01-17T19:41:34.806Z,11.23
2023-01-17T19:44:06.707Z,15.05
2023-01-17T19:46:34.652Z,14.75
2023-01-17T19:49:01.649Z,18.20
2023-01-17T19:51:28.745Z,16.27
2023-01-17T19:53:56.564Z,20.63
2023-01-17T19:56:25.829Z,16.17
2023-01-17T19:58:53.335Z,19.27
2023-01-17T20:01:24.539Z,13.68
2023-01-17T20:03:52.223Z,15.48
2023-01-17T20:06:25.335Z,16.63
2023-01-17T20:08:52.001Z,11.98
2023-01-17T20:11:20.966Z,10.20
2023-01-17T20:13:53.382Z,13.60
2023-01-17T20:16:21.479Z,10.60
2023-01-17T20:18:48.349Z,9.55
2023-01-17T20:21:17.441Z,22.65
2023-01-17T20:23:47.544Z,31.17
2023-01-17T20:26:16.039Z,19.48
2023-01-17T20:28:45.427Z,51.03
2023-01-17T20:31:17.337Z,10.48
2023-01-17T20:33:45.536Z,19.50
2023-01-17T20:36:14.943Z,11.93
2023-01-17T20:38:45.347Z,16.23
2023-01-17T20:41:17.085Z,13.88
2023-01-17T20:43:46.724Z,22.73
2023-01-17T20:46:14.437Z,23.35
2023-01-17T20:48:49.731Z,22.70
2023-01-17T20:51:17.254Z,30.35
2023-01-17T20:53:46.122Z,28.20
2023-01-17T20:56:15.367Z,27.80
2023-01-17T20:58:42.711Z,44.40
2023-01-17T21:01:11.549Z,25.80
2023-01-17T21:03:39.666Z,22.33
2023-01-17T21:06:11.535Z,16.02
2023-01-17T21:08:39.602Z,20.15
2023-01-17T21:11:07.670Z,19.55
2023-01-17T21:13:34.832Z,32.20
2023-01-17T21:16:02.536Z,17.98
2023-01-17T21:18:32.657Z,16.13
2023-01-17T21:21:08.136Z,11.80
2023-01-17T21:23:35.962Z,9.43
2023-01-17T21:26:03.561Z,7.53
2023-01-17T21:28:33.433Z,8.75
2023-01-17T21:31:00.228Z,10.95
2023-01-17T21:33:29.398Z,15.98
2023-01-17T21:36:07.803Z,8.02
2023-01-17T21:38:34.461Z,7.68
2023-01-17T21:41:01.129Z,11.73
2023-01-17T21:43:28.014Z,7.30
2023-01-17T21:45:54.836Z,10.55
2023-01-17T21:48:21.533Z,7.20
2023-01-17T21:50:52.237Z,7.50
2023-01-17T21:53:18.940Z,8.57
2023-01-17T21:56:04.115Z,9.57
2023-01-17T21:58:46.067Z,10.32
2023-01-17T22:01:21.908Z,16.02
2023-01-17T22:03:57.123Z,8.07
2023-01-17T22:06:27.676Z,9.65
2023-01-17T22:08:54.876Z,7.13
2023-01-17T22:11:26.188Z,9.80
2023-01-17T22:13:53.383Z,9.75
2023-01-17T22:16:23.425Z,6.97
2023-01-17T22:18:52.091Z,11.95
2023-01-17T22:21:24.777Z,4.63
2023-01-17T22:23:57.154Z,3.75
2023-01-17T22:28:52.386Z,6.32
2023-01-17T22:31:25.221Z,8.68
2023-01-17T22:33:54.774Z,3.10
2023-01-17T22:36:21.993Z,4.88
2023-01-17T22:38:49.091Z,7.38
2023-01-17T22:41:29.879Z,4.53
2023-01-17T22:43:58.830Z,9.23
2023-01-17T22:46:28.140Z,7.13
2023-01-17T22:48:56.238Z,6.05
2023-01-17T22:51:24.352Z,9.75
2023-01-17T22:53:53.152Z,7.05
2023-01-17T22:56:22.600Z,13.07
2023-01-17T22:58:50.184Z,9.20
2023-01-17T23:01:25.275Z,8.80
2023-01-17T23:03:54.333Z,11.07
2023-01-17T23:06:25.554Z,11.23
2023-01-17T23:08:54.642Z,6.78
2023-01-17T23:11:39.194Z,6.90
2023-01-17T23:14:07.833Z,6.80
2023-01-17T23:16:53.009Z,14.70
2023-01-17T23:19:22.752Z,9.68
2023-01-17T23:22:09.796Z,10.73
2023-01-17T23:24:39.559Z,11.48
2023-01-17T23:27:24.840Z,8.23
2023-01-17T23:29:51.497Z,9.43
2023-01-17T23:32:18.128Z,6.75
2023-01-17T23:34:44.854Z,8.93
2023-01-17T23:37:11.501Z,8.30
2023-01-17T23:39:38.113Z,7.10
2023-01-17T23:42:28.054Z,10.18
2023-01-17T23:44:54.674Z,6.28
2023-01-17T23:47:21.308Z,4.55
2023-01-17T23:49:50.952Z,2.40
2023-01-17T23:52:17.603Z,6.05
2023-01-17T23:54:44.221Z,5.65
2023-01-17T23:57:10.911Z,4.68
2023-01-17T23:59:37.610Z,3.22
